sensor_id;sensor_type;location;lat;lon;timestamp;P1;durP1;ratioP1;P2;durP2;ratioP2
58876;SDS011;44659;47.002;9.536;2022-11-06T00:00:01;7.68;;;4.03;;
58876;SDS011;44659;47.002;9.536;2022-11-06T00:02:26;9.23;;;4.57;;
58876;SDS011;44659;47.002;9.536;2022-11-06T00:04:51;10.53;;;4.73;;
58876;SDS011;44659;47.002;9.536;2022-11-06T00:07:16;10.77;;;5.07;;
58876;SDS011;44659;47.002;9.536;2022-11-06T00:09:41;10.13;;;4.73;;
58876;SDS011;44659;47.002;9.536;2022-11-06T00:12:07;9.77;;;4.50;;
58876;SDS011;44659;47.002;9.536;2022-11-06T00:14:32;9.43;;;4.45;;
58876;SDS011;44659;47.002;9.536;2022-11-06T00:16:57;7.77;;;4.07;;
58876;SDS011;44659;47.002;9.536;2022-11-06T00:19:22;7.17;;;3.43;;
58876;SDS011;44659;47.002;9.536;2022-11-06T00:21:47;8.03;;;4.30;;
58876;SDS011;44659;47.002;9.536;2022-11-06T00:24:13;10.83;;;4.13;;
58876;SDS011;44659;47.002;9.536;2022-11-06T00:26:38;7.70;;;3.72;;
58876;SDS011;44659;47.002;9.536;2022-11-06T00:29:04;6.93;;;3.65;;
58876;SDS011;44659;47.002;9.536;2022-11-06T00:31:31;7.80;;;3.80;;
58876;SDS011;44659;47.002;9.536;2022-11-06T00:33:57;6.13;;;3.63;;
58876;SDS011;44659;47.002;9.536;2022-11-06T00:36:23;7.00;;;3.25;;
58876;SDS011;44659;47.002;9.536;2022-11-06T00:38:53;6.18;;;3.30;;
58876;SDS011;44659;47.002;9.536;2022-11-06T00:41:18;8.18;;;3.53;;
58876;SDS011;44659;47.002;9.536;2022-11-06T00:43:57;8.43;;;3.80;;
58876;SDS011;44659;47.002;9.536;2022-11-06T00:46:22;6.45;;;3.13;;
58876;SDS011;44659;47.002;9.536;2022-11-06T00:48:48;6.25;;;3.13;;
58876;SDS011;44659;47.002;9.536;2022-11-06T00:51:15;5.88;;;3.05;;
58876;SDS011;44659;47.002;9.536;2022-11-06T00:53:41;6.40;;;3.53;;
58876;SDS011;44659;47.002;9.536;2022-11-06T00:58:32;5.72;;;2.97;;
58876;SDS011;44659;47.002;9.536;2022-11-06T01:01:04;7.05;;;3.45;;
58876;SDS011;44659;47.002;9.536;2022-11-06T01:03:29;7.82;;;3.33;;
58876;SDS011;44659;47.002;9.536;2022-11-06T01:05:54;7.15;;;3.40;;
58876;SDS011;44659;47.002;9.536;2022-11-06T01:08:19;8.93;;;3.57;;
58876;SDS011;44659;47.002;9.536;2022-11-06T01:10:45;5.50;;;2.73;;
58876;SDS011;44659;47.002;9.536;2022-11-06T01:13:10;6.90;;;3.40;;
58876;SDS011;44659;47.002;9.536;2022-11-06T01:15:35;7.47;;;3.23;;
58876;SDS011;44659;47.002;9.536;2022-11-06T01:18:01;10.27;;;3.22;;
58876;SDS011;44659;47.002;9.536;2022-11-06T01:20:26;8.13;;;3.40;;
58876;SDS011;44659;47.002;9.536;2022-11-06T01:22:51;5.03;;;2.77;;
58876;SDS011;44659;47.002;9.536;2022-11-06T01:25:16;7.17;;;3.27;;
58876;SDS011;44659;47.002;9.536;2022-11-06T01:27:41;6.37;;;2.90;;
58876;SDS011;44659;47.002;9.536;2022-11-06T01:30:07;7.27;;;2.77;;
58876;SDS011;44659;47.002;9.536;2022-11-06T01:32:33;6.40;;;2.67;;
58876;SDS011;44659;47.002;9.536;2022-11-06T01:34:58;5.65;;;2.20;;
58876;SDS011;44659;47.002;9.536;2022-11-06T01:37:23;6.33;;;2.60;;
58876;SDS011;44659;47.002;9.536;2022-11-06T01:39:48;5.50;;;2.70;;
58876;SDS011;44659;47.002;9.536;2022-11-06T01:42:14;5.43;;;2.83;;
58876;SDS011;44659;47.002;9.536;2022-11-06T01:47:17;3.67;;;2.20;;
58876;SDS011;44659;47.002;9.536;2022-11-06T01:49:43;6.88;;;3.10;;
58876;SDS011;44659;47.002;9.536;2022-11-06T01:52:09;6.68;;;2.88;;
58876;SDS011;44659;47.002;9.536;2022-11-06T01:54:35;5.35;;;2.47;;
58876;SDS011;44659;47.002;9.536;2022-11-06T01:57:01;4.13;;;2.10;;
58876;SDS011;44659;47.002;9.536;2022-11-06T01:59:28;3.72;;;2.00;;
58876;SDS011;44659;47.002;9.536;2022-11-06T02:01:53;3.75;;;1.73;;
58876;SDS011;44659;47.002;9.536;2022-11-06T02:04:23;5.30;;;2.20;;
58876;SDS011;44659;47.002;9.536;2022-11-06T02:06:48;5.13;;;2.20;;
58876;SDS011;44659;47.002;9.536;2022-11-06T02:09:14;4.40;;;1.92;;
58876;SDS011;44659;47.002;9.536;2022-11-06T02:11:40;4.05;;;2.05;;
58876;SDS011;44659;47.002;9.536;2022-11-06T02:27:30;4.63;;;2.15;;
58876;SDS011;44659;47.002;9.536;2022-11-06T02:30:01;4.80;;;2.30;;
58876;SDS011;44659;47.002;9.536;2022-11-06T02:32:32;5.82;;;2.45;;
58876;SDS011;44659;47.002;9.536;2022-11-06T02:34:59;5.53;;;2.33;;
58876;SDS011;44659;47.002;9.536;2022-11-06T02:37:27;5.25;;;2.45;;
58876;SDS011;44659;47.002;9.536;2022-11-06T02:39:54;6.55;;;2.38;;
58876;SDS011;44659;47.002;9.536;2022-11-06T02:42:21;5.20;;;2.67;;
58876;SDS011;44659;47.002;9.536;2022-11-06T02:44:48;7.25;;;3.08;;
58876;SDS011;44659;47.002;9.536;2022-11-06T02:47:14;4.97;;;2.30;;
58876;SDS011;44659;47.002;9.536;2022-11-06T02:49:41;4.57;;;2.15;;
58876;SDS011;44659;47.002;9.536;2022-11-06T02:52:10;2.95;;;1.70;;
58876;SDS011;44659;47.002;9.536;2022-11-06T02:54:37;4.45;;;2.10;;
58876;SDS011;44659;47.002;9.536;2022-11-06T02:57:05;4.15;;;1.95;;
58876;SDS011;44659;47.002;9.536;2022-11-06T02:59:51;2.95;;;1.70;;
58876;SDS011;44659;47.002;9.536;2022-11-06T03:02:23;2.90;;;1.33;;
58876;SDS011;44659;47.002;9.536;2022-11-06T03:05:01;3.50;;;2.17;;
58876;SDS011;44659;47.002;9.536;2022-11-06T03:08:09;6.07;;;2.35;;
58876;SDS011;44659;47.002;9.536;2022-11-06T03:10:15;5.72;;;2.63;;
58876;SDS011;44659;47.002;9.536;2022-11-06T03:12:57;4.00;;;2.30;;
58876;SDS011;44659;47.002;9.536;2022-11-06T03:15:30;4.43;;;2.03;;
58876;SDS011;44659;47.002;9.536;2022-11-06T03:18:01;5.03;;;2.20;;
58876;SDS011;44659;47.002;9.536;2022-11-06T03:23:27;4.40;;;2.40;;
58876;SDS011;44659;47.002;9.536;2022-11-06T03:26:06;5.57;;;2.80;;
58876;SDS011;44659;47.002;9.536;2022-11-06T03:28:35;4.22;;;2.13;;
58876;SDS011;44659;47.002;9.536;2022-11-06T03:31:02;4.20;;;2.17;;
58876;SDS011;44659;47.002;9.536;2022-11-06T03:33:48;4.70;;;2.00;;
58876;SDS011;44659;47.002;9.536;2022-11-06T03:36:19;4.43;;;1.85;;
58876;SDS011;44659;47.002;9.536;2022-11-06T03:38:48;3.92;;;2.00;;
58876;SDS011;44659;47.002;9.536;2022-11-06T03:41:17;5.63;;;2.25;;
58876;SDS011;44659;47.002;9.536;2022-11-06T03:43:43;3.85;;;1.80;;
58876;SDS011;44659;47.002;9.536;2022-11-06T03:46:12;5.72;;;2.10;;
58876;SDS011;44659;47.002;9.536;2022-11-06T03:48:39;4.65;;;2.05;;
58876;SDS011;44659;47.002;9.536;2022-11-06T03:52:06;4.82;;;2.20;;
58876;SDS011;44659;47.002;9.536;2022-11-06T03:54:09;6.45;;;2.20;;
58876;SDS011;44659;47.002;9.536;2022-11-06T03:56:46;4.35;;;1.92;;
58876;SDS011;44659;47.002;9.536;2022-11-06T03:59:14;4.43;;;2.20;;
58876;SDS011;44659;47.002;9.536;2022-11-06T04:01:43;5.22;;;1.85;;
58876;SDS011;44659;47.002;9.536;2022-11-06T04:04:18;4.53;;;2.17;;
58876;SDS011;44659;47.002;9.536;2022-11-06T04:06:55;3.75;;;1.90;;
58876;SDS011;44659;47.002;9.536;2022-11-06T04:09:23;4.20;;;2.10;;
58876;SDS011;44659;47.002;9.536;2022-11-06T04:12:08;6.28;;;2.35;;
58876;SDS011;44659;47.002;9.536;2022-11-06T04:14:53;5.03;;;1.80;;
58876;SDS011;44659;47.002;9.536;2022-11-06T04:17:19;4.22;;;2.00;;
58876;SDS011;44659;47.002;9.536;2022-11-06T04:19:48;4.40;;;1.98;;
58876;SDS011;44659;47.002;9.536;2022-11-06T04:22:20;3.65;;;1.80;;
58876;SDS011;44659;47.002;9.536;2022-11-06T04:30:16;2.40;;;1.47;;
58876;SDS011;44659;47.002;9.536;2022-11-06T04:37:56;5.13;;;2.10;;
58876;SDS011;44659;47.002;9.536;2022-11-06T04:40:39;5.28;;;1.60;;
58876;SDS011;44659;47.002;9.536;2022-11-06T04:43:20;5.38;;;1.50;;
58876;SDS011;44659;47.002;9.536;2022-11-06T04:45:48;3.13;;;1.42;;
58876;SDS011;44659;47.002;9.536;2022-11-06T04:48:15;3.08;;;1.80;;
58876;SDS011;44659;47.002;9.536;2022-11-06T04:50:46;4.20;;;2.03;;
58876;SDS011;44659;47.002;9.536;2022-11-06T04:53:12;2.72;;;1.40;;
58876;SDS011;44659;47.002;9.536;2022-11-06T04:55:45;3.47;;;1.40;;
58876;SDS011;44659;47.002;9.536;2022-11-06T04:58:11;3.72;;;1.80;;
58876;SDS011;44659;47.002;9.536;2022-11-06T05:00:37;5.57;;;1.90;;
58876;SDS011;44659;47.002;9.536;2022-11-06T05:03:04;3.47;;;1.60;;
58876;SDS011;44659;47.002;9.536;2022-11-06T05:05:29;5.30;;;1.77;;
58876;SDS011;44659;47.002;9.536;2022-11-06T05:07:54;3.55;;;1.27;;
58876;SDS011;44659;47.002;9.536;2022-11-06T05:10:19;3.33;;;1.40;;
58876;SDS011;44659;47.002;9.536;2022-11-06T05:12:46;3.00;;;1.20;;
58876;SDS011;44659;47.002;9.536;2022-11-06T05:15:11;2.65;;;1.30;;
58876;SDS011;44659;47.002;9.536;2022-11-06T05:17:36;1.93;;;1.13;;
58876;SDS011;44659;47.002;9.536;2022-11-06T05:20:01;3.47;;;1.80;;
58876;SDS011;44659;47.002;9.536;2022-11-06T05:22:26;3.47;;;1.60;;
58876;SDS011;44659;47.002;9.536;2022-11-06T05:25:12;4.07;;;1.33;;
58876;SDS011;44659;47.002;9.536;2022-11-06T05:27:37;5.38;;;1.58;;
58876;SDS011;44659;47.002;9.536;2022-11-06T05:30:02;3.33;;;1.27;;
58876;SDS011;44659;47.002;9.536;2022-11-06T05:32:27;2.78;;;1.52;;
58876;SDS011;44659;47.002;9.536;2022-11-06T05:34:54;4.82;;;1.52;;
58876;SDS011;44659;47.002;9.536;2022-11-06T05:37:19;3.13;;;1.37;;
58876;SDS011;44659;47.002;9.536;2022-11-06T05:39:44;1.77;;;1.08;;
58876;SDS011;44659;47.002;9.536;2022-11-06T05:42:09;1.53;;;0.97;;
58876;SDS011;44659;47.002;9.536;2022-11-06T05:44:35;1.73;;;1.03;;
58876;SDS011;44659;47.002;9.536;2022-11-06T05:47:01;1.85;;;1.20;;
58876;SDS011;44659;47.002;9.536;2022-11-06T05:49:26;2.25;;;1.00;;
58876;SDS011;44659;47.002;9.536;2022-11-06T05:51:52;1.60;;;1.20;;
58876;SDS011;44659;47.002;9.536;2022-11-06T05:54:17;2.53;;;1.10;;
58876;SDS011;44659;47.002;9.536;2022-11-06T05:56:42;1.93;;;1.20;;
58876;SDS011;44659;47.002;9.536;2022-11-06T05:59:07;1.60;;;1.10;;
58876;SDS011;44659;47.002;9.536;2022-11-06T06:01:32;1.48;;;1.05;;
58876;SDS011;44659;47.002;9.536;2022-11-06T06:03:58;5.50;;;2.75;;
58876;SDS011;44659;47.002;9.536;2022-11-06T06:06:23;2.30;;;0.82;;
58876;SDS011;44659;47.002;9.536;2022-11-06T06:08:48;1.77;;;0.90;;
58876;SDS011;44659;47.002;9.536;2022-11-06T06:11:14;1.83;;;1.00;;
58876;SDS011;44659;47.002;9.536;2022-11-06T06:13:39;1.75;;;0.80;;
58876;SDS011;44659;47.002;9.536;2022-11-06T06:16:04;2.28;;;1.00;;
58876;SDS011;44659;47.002;9.536;2022-11-06T06:18:30;1.98;;;0.90;;
58876;SDS011;44659;47.002;9.536;2022-11-06T06:20:58;2.22;;;1.00;;
58876;SDS011;44659;47.002;9.536;2022-11-06T06:23:23;2.25;;;0.90;;
58876;SDS011;44659;47.002;9.536;2022-11-06T06:25:48;0.80;;;0.73;;
58876;SDS011;44659;47.002;9.536;2022-11-06T06:28:14;1.10;;;0.80;;
58876;SDS011;44659;47.002;9.536;2022-11-06T06:30:39;1.67;;;0.90;;
58876;SDS011;44659;47.002;9.536;2022-11-06T06:33:04;1.27;;;0.90;;
58876;SDS011;44659;47.002;9.536;2022-11-06T06:35:30;1.30;;;0.88;;
58876;SDS011;44659;47.002;9.536;2022-11-06T06:37:55;2.03;;;1.17;;
58876;SDS011;44659;47.002;9.536;2022-11-06T06:40:21;1.55;;;0.90;;
58876;SDS011;44659;47.002;9.536;2022-11-06T06:42:47;2.65;;;1.10;;
58876;SDS011;44659;47.002;9.536;2022-11-06T06:45:12;2.42;;;0.90;;
58876;SDS011;44659;47.002;9.536;2022-11-06T06:47:37;2.25;;;0.95;;
58876;SDS011;44659;47.002;9.536;2022-11-06T06:50:02;1.73;;;0.88;;
58876;SDS011;44659;47.002;9.536;2022-11-06T06:52:28;2.15;;;0.82;;
58876;SDS011;44659;47.002;9.536;2022-11-06T06:54:53;1.97;;;0.90;;
58876;SDS011;44659;47.002;9.536;2022-11-06T06:57:18;1.65;;;1.00;;
58876;SDS011;44659;47.002;9.536;2022-11-06T06:59:43;2.35;;;1.10;;
58876;SDS011;44659;47.002;9.536;2022-11-06T07:02:08;1.60;;;0.90;;
58876;SDS011;44659;47.002;9.536;2022-11-06T07:04:34;2.43;;;1.10;;
58876;SDS011;44659;47.002;9.536;2022-11-06T07:06:59;1.53;;;0.90;;
58876;SDS011;44659;47.002;9.536;2022-11-06T07:09:24;3.17;;;1.10;;
58876;SDS011;44659;47.002;9.536;2022-11-06T07:11:49;2.67;;;1.20;;
58876;SDS011;44659;47.002;9.536;2022-11-06T07:14:15;1.98;;;1.00;;
58876;SDS011;44659;47.002;9.536;2022-11-06T07:16:40;3.97;;;1.20;;
58876;SDS011;44659;47.002;9.536;2022-11-06T07:19:05;2.35;;;1.00;;
58876;SDS011;44659;47.002;9.536;2022-11-06T07:21:30;2.03;;;1.00;;
58876;SDS011;44659;47.002;9.536;2022-11-06T07:23:55;2.00;;;1.10;;
58876;SDS011;44659;47.002;9.536;2022-11-06T07:26:21;3.80;;;1.60;;
58876;SDS011;44659;47.002;9.536;2022-11-06T07:28:46;5.63;;;1.58;;
58876;SDS011;44659;47.002;9.536;2022-11-06T07:31:11;3.13;;;1.25;;
58876;SDS011;44659;47.002;9.536;2022-11-06T07:33:36;1.30;;;0.90;;
58876;SDS011;44659;47.002;9.536;2022-11-06T07:36:05;1.88;;;0.82;;
58876;SDS011;44659;47.002;9.536;2022-11-06T07:38:31;1.25;;;0.80;;
58876;SDS011;44659;47.002;9.536;2022-11-06T07:40:59;1.25;;;0.70;;
58876;SDS011;44659;47.002;9.536;2022-11-06T07:43:25;3.25;;;0.90;;
58876;SDS011;44659;47.002;9.536;2022-11-06T07:45:51;2.28;;;1.10;;
58876;SDS011;44659;47.002;9.536;2022-11-06T07:48:16;3.13;;;1.10;;
58876;SDS011;44659;47.002;9.536;2022-11-06T07:50:42;2.20;;;1.00;;
58876;SDS011;44659;47.002;9.536;2022-11-06T07:53:07;2.13;;;0.93;;
58876;SDS011;44659;47.002;9.536;2022-11-06T07:55:32;2.97;;;1.05;;
58876;SDS011;44659;47.002;9.536;2022-11-06T07:57:57;4.27;;;1.10;;
58876;SDS011;44659;47.002;9.536;2022-11-06T08:00:23;2.35;;;1.17;;
58876;SDS011;44659;47.002;9.536;2022-11-06T08:02:51;2.07;;;1.10;;
58876;SDS011;44659;47.002;9.536;2022-11-06T08:05:17;0.88;;;0.65;;
58876;SDS011;44659;47.002;9.536;2022-11-06T08:07:42;2.70;;;0.97;;
58876;SDS011;44659;47.002;9.536;2022-11-06T08:15:17;0.80;;;0.70;;
58876;SDS011;44659;47.002;9.536;2022-11-06T08:18:03;1.83;;;0.80;;
58876;SDS011;44659;47.002;9.536;2022-11-06T08:20:30;3.13;;;0.80;;
58876;SDS011;44659;47.002;9.536;2022-11-06T08:23:06;3.80;;;0.60;;
58876;SDS011;44659;47.002;9.536;2022-11-06T08:25:36;0.77;;;0.60;;
58876;SDS011;44659;47.002;9.536;2022-11-06T08:28:03;1.95;;;0.70;;
58876;SDS011;44659;47.002;9.536;2022-11-06T08:31:14;3.67;;;0.70;;
58876;SDS011;44659;47.002;9.536;2022-11-06T08:34:02;0.52;;;0.52;;
58876;SDS011;44659;47.002;9.536;2022-11-06T08:36:29;4.13;;;0.60;;
58876;SDS011;44659;47.002;9.536;2022-11-06T08:38:57;2.38;;;0.60;;
58876;SDS011;44659;47.002;9.536;2022-11-06T08:41:24;0.60;;;0.60;;
58876;SDS011;44659;47.002;9.536;2022-11-06T08:44:11;1.33;;;0.70;;
58876;SDS011;44659;47.002;9.536;2022-11-06T08:46:49;1.00;;;0.70;;
58876;SDS011;44659;47.002;9.536;2022-11-06T08:49:46;3.22;;;0.70;;
58876;SDS011;44659;47.002;9.536;2022-11-06T08:52:16;1.52;;;0.70;;
58876;SDS011;44659;47.002;9.536;2022-11-06T08:54:43;0.60;;;0.50;;
58876;SDS011;44659;47.002;9.536;2022-11-06T08:57:10;0.77;;;0.50;;
58876;SDS011;44659;47.002;9.536;2022-11-06T08:59:37;2.40;;;0.70;;
58876;SDS011;44659;47.002;9.536;2022-11-06T09:02:03;1.55;;;0.63;;
58876;SDS011;44659;47.002;9.536;2022-11-06T09:04:28;2.60;;;1.05;;
58876;SDS011;44659;47.002;9.536;2022-11-06T09:06:55;0.60;;;0.50;;
58876;SDS011;44659;47.002;9.536;2022-11-06T09:09:20;0.85;;;0.60;;
58876;SDS011;44659;47.002;9.536;2022-11-06T09:11:45;3.65;;;0.50;;
58876;SDS011;44659;47.002;9.536;2022-11-06T09:14:10;1.87;;;0.50;;
58876;SDS011;44659;47.002;9.536;2022-11-06T09:16:36;0.63;;;0.40;;
58876;SDS011;44659;47.002;9.536;2022-11-06T09:19:03;0.80;;;0.50;;
58876;SDS011;44659;47.002;9.536;2022-11-06T09:21:32;0.45;;;0.45;;
58876;SDS011;44659;47.002;9.536;2022-11-06T09:23:59;4.88;;;0.40;;
58876;SDS011;44659;47.002;9.536;2022-11-06T09:26:25;0.40;;;0.40;;
58876;SDS011;44659;47.002;9.536;2022-11-06T09:28:50;0.63;;;0.38;;
58876;SDS011;44659;47.002;9.536;2022-11-06T09:31:15;2.50;;;0.40;;
58876;SDS011;44659;47.002;9.536;2022-11-06T09:33:40;0.43;;;0.40;;
58876;SDS011;44659;47.002;9.536;2022-11-06T09:36:06;0.55;;;0.40;;
58876;SDS011;44659;47.002;9.536;2022-11-06T09:38:31;0.47;;;0.40;;
58876;SDS011;44659;47.002;9.536;2022-11-06T09:40:58;0.40;;;0.40;;
58876;SDS011;44659;47.002;9.536;2022-11-06T09:45:49;0.40;;;0.30;;
58876;SDS011;44659;47.002;9.536;2022-11-06T09:48:25;0.40;;;0.40;;
58876;SDS011;44659;47.002;9.536;2022-11-06T09:51:27;1.50;;;0.40;;
58876;SDS011;44659;47.002;9.536;2022-11-06T09:53:49;1.38;;;0.50;;
58876;SDS011;44659;47.002;9.536;2022-11-06T09:56:15;2.28;;;0.45;;
58876;SDS011;44659;47.002;9.536;2022-11-06T09:58:42;1.05;;;0.45;;
58876;SDS011;44659;47.002;9.536;2022-11-06T10:01:18;0.90;;;0.40;;
58876;SDS011;44659;47.002;9.536;2022-11-06T10:06:10;0.40;;;0.40;;
58876;SDS011;44659;47.002;9.536;2022-11-06T10:08:36;0.38;;;0.35;;
58876;SDS011;44659;47.002;9.536;2022-11-06T10:11:20;2.67;;;0.45;;
58876;SDS011;44659;47.002;9.536;2022-11-06T10:14:48;1.20;;;0.43;;
58876;SDS011;44659;47.002;9.536;2022-11-06T10:22:19;0.75;;;0.40;;
58876;SDS011;44659;47.002;9.536;2022-11-06T10:24:22;0.50;;;0.45;;
58876;SDS011;44659;47.002;9.536;2022-11-06T10:26:50;0.40;;;0.35;;
58876;SDS011;44659;47.002;9.536;2022-11-06T10:34:49;1.05;;;0.45;;
58876;SDS011;44659;47.002;9.536;2022-11-06T10:37:17;0.68;;;0.50;;
58876;SDS011;44659;47.002;9.536;2022-11-06T10:39:44;2.28;;;0.50;;
58876;SDS011;44659;47.002;9.536;2022-11-06T10:42:15;10.73;;;0.57;;
58876;SDS011;44659;47.002;9.536;2022-11-06T10:47:11;1.80;;;0.38;;
58876;SDS011;44659;47.002;9.536;2022-11-06T10:49:41;0.40;;;0.30;;
58876;SDS011;44659;47.002;9.536;2022-11-06T10:52:24;0.32;;;0.32;;
58876;SDS011;44659;47.002;9.536;2022-11-06T11:00:00;0.60;;;0.45;;
58876;SDS011;44659;47.002;9.536;2022-11-06T11:02:28;0.30;;;0.30;;
58876;SDS011;44659;47.002;9.536;2022-11-06T11:13:09;1.75;;;0.32;;
58876;SDS011;44659;47.002;9.536;2022-11-06T11:15:48;3.08;;;0.50;;
58876;SDS011;44659;47.002;9.536;2022-11-06T11:18:39;5.25;;;0.55;;
58876;SDS011;44659;47.002;9.536;2022-11-06T11:27:42;0.63;;;0.47;;
58876;SDS011;44659;47.002;9.536;2022-11-06T11:33:09;1.27;;;0.60;;
58876;SDS011;44659;47.002;9.536;2022-11-06T11:35:39;0.40;;;0.40;;
58876;SDS011;44659;47.002;9.536;2022-11-06T11:38:12;2.88;;;0.60;;
58876;SDS011;44659;47.002;9.536;2022-11-06T11:40:38;1.58;;;0.60;;
58876;SDS011;44659;47.002;9.536;2022-11-06T11:48:39;0.50;;;0.43;;
58876;SDS011;44659;47.002;9.536;2022-11-06T11:51:12;1.45;;;0.40;;
58876;SDS011;44659;47.002;9.536;2022-11-06T11:53:39;0.88;;;0.50;;
58876;SDS011;44659;47.002;9.536;2022-11-06T11:56:05;0.93;;;0.50;;
58876;SDS011;44659;47.002;9.536;2022-11-06T11:58:31;1.25;;;0.50;;
58876;SDS011;44659;47.002;9.536;2022-11-06T12:00:57;0.80;;;0.40;;
58876;SDS011;44659;47.002;9.536;2022-11-06T12:03:25;0.95;;;0.40;;
58876;SDS011;44659;47.002;9.536;2022-11-06T12:05:51;0.70;;;0.38;;
58876;SDS011;44659;47.002;9.536;2022-11-06T12:08:21;1.13;;;0.40;;
58876;SDS011;44659;47.002;9.536;2022-11-06T12:10:47;0.32;;;0.30;;
58876;SDS011;44659;47.002;9.536;2022-11-06T12:13:17;0.30;;;0.30;;
58876;SDS011;44659;47.002;9.536;2022-11-06T12:18:19;0.57;;;0.38;;
58876;SDS011;44659;47.002;9.536;2022-11-06T12:23:23;3.80;;;0.50;;
58876;SDS011;44659;47.002;9.536;2022-11-06T12:25:55;1.08;;;0.47;;
58876;SDS011;44659;47.002;9.536;2022-11-06T12:28:20;1.95;;;0.40;;
58876;SDS011;44659;47.002;9.536;2022-11-06T12:30:56;0.30;;;0.30;;
58876;SDS011;44659;47.002;9.536;2022-11-06T12:33:22;0.68;;;0.40;;
58876;SDS011;44659;47.002;9.536;2022-11-06T12:35:51;0.85;;;0.55;;
58876;SDS011;44659;47.002;9.536;2022-11-06T12:38:26;0.80;;;0.40;;
58876;SDS011;44659;47.002;9.536;2022-11-06T12:43:49;1.30;;;0.50;;
58876;SDS011;44659;47.002;9.536;2022-11-06T12:51:22;0.50;;;0.30;;
58876;SDS011;44659;47.002;9.536;2022-11-06T12:59:34;1.30;;;0.40;;
58876;SDS011;44659;47.002;9.536;2022-11-06T13:04:33;0.65;;;0.40;;
58876;SDS011;44659;47.002;9.536;2022-11-06T13:12:17;0.55;;;0.38;;
58876;SDS011;44659;47.002;9.536;2022-11-06T13:19:58;0.65;;;0.40;;
58876;SDS011;44659;47.002;9.536;2022-11-06T13:22:46;0.52;;;0.40;;
58876;SDS011;44659;47.002;9.536;2022-11-06T13:25:19;0.68;;;0.40;;
58876;SDS011;44659;47.002;9.536;2022-11-06T13:30:31;1.23;;;0.57;;
58876;SDS011;44659;47.002;9.536;2022-11-06T13:33:09;1.20;;;0.50;;
58876;SDS011;44659;47.002;9.536;2022-11-06T13:35:38;0.85;;;0.50;;
58876;SDS011;44659;47.002;9.536;2022-11-06T13:38:10;1.20;;;0.50;;
58876;SDS011;44659;47.002;9.536;2022-11-06T13:40:40;0.57;;;0.50;;
58876;SDS011;44659;47.002;9.536;2022-11-06T13:43:20;0.50;;;0.30;;
58876;SDS011;44659;47.002;9.536;2022-11-06T13:48:34;1.90;;;0.47;;
58876;SDS011;44659;47.002;9.536;2022-11-06T13:51:07;0.70;;;0.60;;
58876;SDS011;44659;47.002;9.536;2022-11-06T13:53:42;3.37;;;0.70;;
58876;SDS011;44659;47.002;9.536;2022-11-06T14:06:39;1.47;;;0.60;;
58876;SDS011;44659;47.002;9.536;2022-11-06T14:09:05;0.68;;;0.30;;
58876;SDS011;44659;47.002;9.536;2022-11-06T14:11:36;4.10;;;0.60;;
58876;SDS011;44659;47.002;9.536;2022-11-06T14:16:37;0.93;;;0.50;;
58876;SDS011;44659;47.002;9.536;2022-11-06T14:24:06;2.75;;;0.70;;
58876;SDS011;44659;47.002;9.536;2022-11-06T14:26:38;1.08;;;0.57;;
58876;SDS011;44659;47.002;9.536;2022-11-06T14:31:57;2.15;;;0.75;;
58876;SDS011;44659;47.002;9.536;2022-11-06T14:34:33;8.38;;;1.95;;
58876;SDS011;44659;47.002;9.536;2022-11-06T14:37:43;4.93;;;0.80;;
58876;SDS011;44659;47.002;9.536;2022-11-06T14:42:38;1.27;;;0.75;;
58876;SDS011;44659;47.002;9.536;2022-11-06T14:50:02;5.75;;;1.00;;
58876;SDS011;44659;47.002;9.536;2022-11-06T14:52:28;2.08;;;1.00;;
58876;SDS011;44659;47.002;9.536;2022-11-06T14:55:03;2.28;;;0.90;;
58876;SDS011;44659;47.002;9.536;2022-11-06T14:57:40;1.83;;;1.00;;
58876;SDS011;44659;47.002;9.536;2022-11-06T15:00:10;1.83;;;1.10;;
58876;SDS011;44659;47.002;9.536;2022-11-06T15:02:36;2.35;;;1.20;;
58876;SDS011;44659;47.002;9.536;2022-11-06T15:05:02;1.95;;;0.90;;
58876;SDS011;44659;47.002;9.536;2022-11-06T15:09:57;4.00;;;1.00;;
58876;SDS011;44659;47.002;9.536;2022-11-06T15:13:02;2.63;;;1.20;;
58876;SDS011;44659;47.002;9.536;2022-11-06T15:17:33;4.05;;;1.23;;
58876;SDS011;44659;47.002;9.536;2022-11-06T15:20:00;5.13;;;1.50;;
58876;SDS011;44659;47.002;9.536;2022-11-06T15:24:56;4.28;;;1.75;;
58876;SDS011;44659;47.002;9.536;2022-11-06T15:27:27;5.93;;;1.30;;
58876;SDS011;44659;47.002;9.536;2022-11-06T15:29:54;3.17;;;1.10;;
58876;SDS011;44659;47.002;9.536;2022-11-06T15:32:22;2.08;;;1.10;;
58876;SDS011;44659;47.002;9.536;2022-11-06T15:35:07;2.30;;;1.10;;
58876;SDS011;44659;47.002;9.536;2022-11-06T15:40:04;2.70;;;1.40;;
58876;SDS011;44659;47.002;9.536;2022-11-06T15:42:30;3.33;;;1.45;;
58876;SDS011;44659;47.002;9.536;2022-11-06T15:45:05;4.63;;;1.88;;
58876;SDS011;44659;47.002;9.536;2022-11-06T15:47:30;2.28;;;1.38;;
58876;SDS011;44659;47.002;9.536;2022-11-06T15:52:34;3.10;;;1.63;;
58876;SDS011;44659;47.002;9.536;2022-11-06T15:54:59;2.85;;;1.40;;
58876;SDS011;44659;47.002;9.536;2022-11-06T15:57:25;3.40;;;1.70;;
58876;SDS011;44659;47.002;9.536;2022-11-06T16:00:08;4.90;;;2.63;;
58876;SDS011;44659;47.002;9.536;2022-11-06T16:02:33;4.78;;;1.67;;
58876;SDS011;44659;47.002;9.536;2022-11-06T16:05:10;4.35;;;1.80;;
58876;SDS011;44659;47.002;9.536;2022-11-06T16:07:35;3.63;;;1.80;;
58876;SDS011;44659;47.002;9.536;2022-11-06T16:10:00;3.75;;;1.90;;
58876;SDS011;44659;47.002;9.536;2022-11-06T16:12:27;4.40;;;1.83;;
58876;SDS011;44659;47.002;9.536;2022-11-06T16:14:52;4.32;;;2.25;;
58876;SDS011;44659;47.002;9.536;2022-11-06T16:17:24;4.17;;;2.13;;
58876;SDS011;44659;47.002;9.536;2022-11-06T16:19:50;6.50;;;3.00;;
58876;SDS011;44659;47.002;9.536;2022-11-06T16:22:17;8.43;;;4.30;;
58876;SDS011;44659;47.002;9.536;2022-11-06T16:24:51;6.28;;;3.55;;
58876;SDS011;44659;47.002;9.536;2022-11-06T16:27:18;5.43;;;2.92;;
58876;SDS011;44659;47.002;9.536;2022-11-06T16:29:45;4.28;;;2.30;;
58876;SDS011;44659;47.002;9.536;2022-11-06T16:32:15;4.30;;;2.50;;
58876;SDS011;44659;47.002;9.536;2022-11-06T16:34:41;4.72;;;2.72;;
58876;SDS011;44659;47.002;9.536;2022-11-06T16:49:37;4.63;;;2.53;;
58876;SDS011;44659;47.002;9.536;2022-11-06T16:54:46;5.60;;;2.83;;
58876;SDS011;44659;47.002;9.536;2022-11-06T16:57:12;4.93;;;2.55;;
58876;SDS011;44659;47.002;9.536;2022-11-06T16:59:39;4.70;;;2.70;;
58876;SDS011;44659;47.002;9.536;2022-11-06T17:02:08;4.43;;;2.70;;
58876;SDS011;44659;47.002;9.536;2022-11-06T17:04:42;6.22;;;3.50;;
58876;SDS011;44659;47.002;9.536;2022-11-06T17:07:11;5.73;;;3.47;;
58876;SDS011;44659;47.002;9.536;2022-11-06T17:09:41;5.95;;;3.63;;
58876;SDS011;44659;47.002;9.536;2022-11-06T17:12:08;5.00;;;2.88;;
58876;SDS011;44659;47.002;9.536;2022-11-06T17:14:34;6.03;;;2.75;;
58876;SDS011;44659;47.002;9.536;2022-11-06T17:16:59;5.97;;;3.13;;
58876;SDS011;44659;47.002;9.536;2022-11-06T17:19:26;5.13;;;3.28;;
58876;SDS011;44659;47.002;9.536;2022-11-06T17:21:51;5.30;;;2.80;;
58876;SDS011;44659;47.002;9.536;2022-11-06T17:24:17;6.93;;;2.75;;
58876;SDS011;44659;47.002;9.536;2022-11-06T17:26:43;7.03;;;2.97;;
58876;SDS011;44659;47.002;9.536;2022-11-06T17:29:09;4.80;;;2.90;;
58876;SDS011;44659;47.002;9.536;2022-11-06T17:31:34;5.78;;;2.53;;
58876;SDS011;44659;47.002;9.536;2022-11-06T17:34:00;5.30;;;2.97;;
58876;SDS011;44659;47.002;9.536;2022-11-06T17:36:25;5.18;;;3.28;;
58876;SDS011;44659;47.002;9.536;2022-11-06T17:38:52;6.03;;;3.28;;
58876;SDS011;44659;47.002;9.536;2022-11-06T17:41:17;11.02;;;3.55;;
58876;SDS011;44659;47.002;9.536;2022-11-06T17:46:22;4.95;;;2.92;;
58876;SDS011;44659;47.002;9.536;2022-11-06T17:48:47;4.45;;;2.60;;
58876;SDS011;44659;47.002;9.536;2022-11-06T17:51:12;4.67;;;2.87;;
58876;SDS011;44659;47.002;9.536;2022-11-06T17:53:56;6.18;;;3.30;;
58876;SDS011;44659;47.002;9.536;2022-11-06T17:56:22;6.07;;;3.55;;